createdAt,value
2019-01-28T00:02:09.344Z,99.90
2019-01-28T00:04:37.652Z,99.90
2019-01-28T00:07:06.526Z,99.90
2019-01-28T00:09:34.984Z,99.90
2019-01-28T00:12:04.212Z,99.90
2019-01-28T00:14:32.685Z,99.90
2019-01-28T00:17:01.142Z,99.90
2019-01-28T00:19:30.001Z,99.90
2019-01-28T00:21:58.906Z,99.90
2019-01-28T00:24:27.424Z,99.90
2019-01-28T00:26:56.006Z,99.90
2019-01-28T00:29:24.592Z,99.90
2019-01-28T00:31:53.489Z,99.90
2019-01-28T00:34:22.022Z,99.90
2019-01-28T00:36:50.797Z,99.90
2019-01-28T00:39:19.591Z,99.90
2019-01-28T00:41:48.430Z,99.90
2019-01-28T00:44:17.240Z,99.90
2019-01-28T00:46:45.704Z,99.90
2019-01-28T00:49:14.499Z,99.90
2019-01-28T00:51:44.356Z,99.90
2019-01-28T00:54:12.794Z,99.90
2019-01-28T00:56:41.248Z,99.90
2019-01-28T00:59:10.063Z,99.90
2019-01-28T01:01:39.139Z,99.90
2019-01-28T01:04:09.578Z,99.90
2019-01-28T01:06:38.126Z,99.90
2019-01-28T01:09:08.606Z,99.90
2019-01-28T01:11:37.049Z,99.90
2019-01-28T01:14:05.506Z,99.90
2019-01-28T01:16:34.214Z,99.90
2019-01-28T01:19:03.224Z,99.90
2019-01-28T01:21:32.425Z,99.90
2019-01-28T01:24:01.560Z,99.90
2019-01-28T01:26:30.092Z,99.90
2019-01-28T01:28:59.096Z,99.90
2019-01-28T01:31:27.885Z,99.90
2019-01-28T01:33:56.678Z,99.90
2019-01-28T01:36:25.184Z,99.90
2019-01-28T01:38:53.872Z,99.90
2019-01-28T01:41:22.599Z,99.90
2019-01-28T01:43:51.385Z,99.90
2019-01-28T01:46:20.406Z,99.90
2019-01-28T01:48:49.169Z,99.90
2019-01-28T01:51:17.966Z,99.90
2019-01-28T01:53:46.434Z,99.90
2019-01-28T01:56:15.094Z,99.90
2019-01-28T01:58:43.913Z,99.90
2019-01-28T02:01:12.437Z,99.90
2019-01-28T02:03:40.880Z,99.90
2019-01-28T02:06:09.860Z,99.90
2019-01-28T02:08:38.784Z,99.90
2019-01-28T02:11:07.361Z,99.90
2019-01-28T02:13:36.157Z,99.90
2019-01-28T02:16:04.916Z,99.90
2019-01-28T02:18:33.740Z,99.90
2019-01-28T02:21:02.521Z,99.90
2019-01-28T02:23:33.305Z,99.90
2019-01-28T02:26:01.821Z,99.90
2019-01-28T02:28:32.616Z,99.90
2019-01-28T02:31:01.340Z,99.90
2019-01-28T02:33:30.156Z,99.90
2019-01-28T02:35:58.657Z,99.90
2019-01-28T02:38:27.421Z,99.90
2019-01-28T02:40:56.188Z,99.90
2019-01-28T02:43:24.621Z,99.90
2019-01-28T02:45:53.446Z,99.90
2019-01-28T02:48:22.132Z,99.90
2019-01-28T02:50:50.869Z,99.90
2019-01-28T02:53:19.364Z,99.90
2019-01-28T02:55:48.093Z,99.90
2019-01-28T02:58:16.847Z,99.90
2019-01-28T03:00:45.630Z,99.90
2019-01-28T03:03:14.541Z,99.90
2019-01-28T03:05:43.348Z,99.90
2019-01-28T03:08:12.269Z,99.90
2019-01-28T03:10:41.113Z,99.90
2019-01-28T03:13:09.884Z,99.90
2019-01-28T03:15:38.782Z,99.90
2019-01-28T03:18:07.550Z,99.90
2019-01-28T03:20:36.361Z,99.90
2019-01-28T03:23:05.785Z,99.90
2019-01-28T03:25:34.549Z,99.90
2019-01-28T03:28:03.341Z,99.90
2019-01-28T03:30:31.882Z,99.90
2019-01-28T03:33:00.332Z,99.90
2019-01-28T03:35:29.189Z,99.90
2019-01-28T03:37:57.945Z,99.90
2019-01-28T03:40:26.385Z,99.90
2019-01-28T03:42:55.854Z,99.90
2019-01-28T03:45:24.409Z,99.90
2019-01-28T03:47:53.221Z,99.90
2019-01-28T03:50:22.385Z,99.90
2019-01-28T03:52:51.193Z,99.90
2019-01-28T03:55:20.058Z,99.90
2019-01-28T03:57:48.881Z,99.90
2019-01-28T04:00:23.204Z,99.90
2019-01-28T04:02:52.080Z,99.90
2019-01-28T04:05:20.950Z,99.90
2019-01-28T04:07:49.485Z,99.90
2019-01-28T04:10:22.971Z,99.90
2019-01-28T04:12:51.571Z,99.90
2019-01-28T04:15:21.974Z,99.90
2019-01-28T04:17:50.497Z,99.90
2019-01-28T04:20:20.525Z,99.90
2019-01-28T04:22:48.996Z,99.90
2019-01-28T04:25:17.641Z,99.90
2019-01-28T04:27:46.163Z,99.90
2019-01-28T04:30:17.657Z,99.90
2019-01-28T04:32:46.659Z,99.90
2019-01-28T04:35:15.617Z,99.90
2019-01-28T04:37:44.393Z,99.90
2019-01-28T04:40:14.874Z,99.90
2019-01-28T04:42:43.645Z,99.90
2019-01-28T04:45:15.314Z,99.90
2019-01-28T04:47:44.102Z,99.90
2019-01-28T04:50:15.127Z,99.90
2019-01-28T04:52:43.890Z,99.90
2019-01-28T04:55:14.133Z,99.90
2019-01-28T04:57:42.811Z,99.90
2019-01-28T05:00:14.505Z,99.90
2019-01-28T05:02:42.937Z,99.90
2019-01-28T05:05:12.023Z,99.90
2019-01-28T05:07:40.525Z,99.90
2019-01-28T05:10:12.098Z,99.90
2019-01-28T05:12:40.827Z,99.90
2019-01-28T05:15:12.207Z,99.90
2019-01-28T05:17:40.907Z,99.90
2019-01-28T05:20:15.551Z,99.90
2019-01-28T05:22:44.395Z,99.90
2019-01-28T05:25:14.935Z,99.90
2019-01-28T05:27:43.687Z,99.90
2019-01-28T05:30:15.171Z,99.90
2019-01-28T05:32:43.926Z,99.90
2019-01-28T05:35:15.105Z,99.90
2019-01-28T05:37:43.961Z,99.90
2019-01-28T05:40:15.848Z,99.90
2019-01-28T05:42:44.602Z,99.90
2019-01-28T05:45:18.520Z,99.90
2019-01-28T05:47:46.963Z,99.90
2019-01-28T05:50:15.830Z,99.90
2019-01-28T05:52:44.729Z,99.90
2019-01-28T05:55:15.707Z,99.90
2019-01-28T05:57:44.711Z,99.90
2019-01-28T06:00:24.494Z,99.90
2019-01-28T06:02:53.218Z,99.90
2019-01-28T06:05:22.328Z,99.90
2019-01-28T06:07:50.822Z,99.90
2019-01-28T06:10:19.715Z,99.90
2019-01-28T06:12:48.578Z,99.90
2019-01-28T06:15:19.439Z,99.90
2019-01-28T06:17:47.948Z,99.90
2019-01-28T06:20:19.541Z,99.90
2019-01-28T06:22:48.356Z,99.90
2019-01-28T06:25:17.212Z,99.90
2019-01-28T06:27:45.766Z,99.90
2019-01-28T06:30:26.171Z,99.90
2019-01-28T06:32:54.870Z,99.90
2019-01-28T06:35:23.736Z,99.90
2019-01-28T06:37:52.668Z,99.90
2019-01-28T06:40:27.074Z,99.90
2019-01-28T06:42:55.858Z,99.90
2019-01-28T06:45:24.561Z,99.90
2019-01-28T06:47:53.368Z,99.90
2019-01-28T06:50:22.682Z,99.90
2019-01-28T06:52:51.423Z,99.90
2019-01-28T06:55:20.915Z,99.90
2019-01-28T06:57:49.875Z,99.90
2019-01-28T07:00:24.586Z,99.90
2019-01-28T07:02:54.244Z,99.90
2019-01-28T07:05:22.845Z,99.90
2019-01-28T07:07:51.315Z,99.90
2019-01-28T07:10:20.072Z,99.90
2019-01-28T07:12:48.516Z,99.90
2019-01-28T07:15:19.919Z,99.90
2019-01-28T07:17:54.675Z,99.90
2019-01-28T07:20:21.872Z,99.90
2019-01-28T07:22:50.426Z,99.90
2019-01-28T07:25:19.282Z,99.90
2019-01-28T07:27:48.124Z,99.90
2019-01-28T07:30:23.452Z,99.90
2019-01-28T07:32:53.240Z,99.90
2019-01-28T07:35:22.100Z,99.90
2019-01-28T07:37:50.609Z,99.90
2019-01-28T07:40:19.700Z,99.90
2019-01-28T07:42:48.424Z,99.90
2019-01-28T07:45:20.365Z,99.90
2019-01-28T07:47:48.806Z,99.90
2019-01-28T07:50:17.362Z,99.90
2019-01-28T07:52:45.816Z,99.90
2019-01-28T07:55:14.619Z,99.90
2019-01-28T07:57:43.557Z,99.90
2019-01-28T08:00:23.977Z,99.90
2019-01-28T08:02:54.040Z,99.90
2019-01-28T08:05:22.959Z,99.90
2019-01-28T08:07:51.781Z,99.90
2019-01-28T08:10:21.310Z,99.90
2019-01-28T08:12:51.188Z,99.90
2019-01-28T08:15:22.472Z,99.90
2019-01-28T08:17:51.068Z,99.90
2019-01-28T08:20:20.458Z,99.90
2019-01-28T08:22:49.504Z,99.90
2019-01-28T08:25:20.032Z,99.90
2019-01-28T08:27:50.670Z,99.90
2019-01-28T08:30:22.084Z,99.90
2019-01-28T08:32:50.812Z,99.90
2019-01-28T08:35:19.913Z,99.90
2019-01-28T08:37:48.371Z,99.90
2019-01-28T08:40:19.304Z,99.90
2019-01-28T08:42:48.167Z,99.90
2019-01-28T08:45:17.094Z,99.90
2019-01-28T08:47:45.989Z,99.90
2019-01-28T08:50:22.465Z,99.90
2019-01-28T08:52:51.333Z,99.90
2019-01-28T08:55:24.683Z,99.90
2019-01-28T08:57:53.532Z,99.90
2019-01-28T09:00:24.777Z,99.90
2019-01-28T09:02:53.492Z,99.90
2019-01-28T09:05:22.615Z,99.90
2019-01-28T09:07:51.444Z,99.90
2019-01-28T09:10:23.713Z,99.90
2019-01-28T09:12:52.499Z,99.90
2019-01-28T09:15:22.605Z,99.90
2019-01-28T09:17:51.301Z,99.90
2019-01-28T09:20:22.133Z,99.90
2019-01-28T09:22:51.029Z,99.90
2019-01-28T09:25:19.931Z,99.90
2019-01-28T09:27:48.798Z,99.90
2019-01-28T09:30:34.025Z,99.90
2019-01-28T09:33:02.468Z,99.90
2019-01-28T09:35:32.361Z,99.90
2019-01-28T09:38:00.973Z,99.90
2019-01-28T09:40:32.564Z,99.90
2019-01-28T09:43:01.009Z,99.90
2019-01-28T09:45:32.007Z,99.90
2019-01-28T09:48:00.809Z,99.90
2019-01-28T09:50:29.890Z,99.90
2019-01-28T09:52:59.254Z,99.90
2019-01-28T09:55:27.922Z,99.90
2019-01-28T09:57:56.598Z,99.90
2019-01-28T10:00:28.157Z,99.90
2019-01-28T10:02:57.299Z,99.90
2019-01-28T10:05:25.886Z,99.90
2019-01-28T10:07:54.807Z,99.90
2019-01-28T10:10:23.507Z,99.90
2019-01-28T10:12:52.366Z,99.90
2019-01-28T10:15:22.271Z,99.90
2019-01-28T10:17:50.789Z,99.90
2019-01-28T10:20:32.460Z,99.90
2019-01-28T10:23:01.429Z,99.90
2019-01-28T10:25:30.041Z,99.90
2019-01-28T10:27:58.858Z,99.90
2019-01-28T10:30:35.873Z,99.90
2019-01-28T10:33:05.277Z,99.90
2019-01-28T10:35:36.025Z,99.90
2019-01-28T10:38:05.219Z,99.90
2019-01-28T10:40:36.524Z,99.90
2019-01-28T10:43:06.107Z,99.90
2019-01-28T10:45:34.545Z,99.90
2019-01-28T10:48:03.425Z,99.90
2019-01-28T10:50:32.415Z,99.90
2019-01-28T10:53:01.203Z,99.90
2019-01-28T10:55:31.260Z,99.90
2019-01-28T10:57:59.869Z,99.90
2019-01-28T11:00:46.115Z,99.90
2019-01-28T11:03:16.588Z,99.90
2019-01-28T11:05:45.557Z,99.90
2019-01-28T11:08:14.019Z,99.90
2019-01-28T11:10:42.585Z,99.90
2019-01-28T11:13:11.122Z,99.90
2019-01-28T11:15:39.809Z,99.90
2019-01-28T11:18:11.789Z,99.90
2019-01-28T11:20:40.738Z,99.90
2019-01-28T11:23:09.502Z,99.90
2019-01-28T11:25:38.298Z,99.90
2019-01-28T11:28:07.349Z,99.90
2019-01-28T11:30:43.725Z,99.90
2019-01-28T11:33:13.786Z,99.90
2019-01-28T11:35:42.924Z,99.90
2019-01-28T11:38:13.066Z,99.90
2019-01-28T11:40:45.781Z,99.90
2019-01-28T11:43:17.889Z,99.90
2019-01-28T11:45:50.221Z,99.90
2019-01-28T11:48:19.098Z,99.90
2019-01-28T11:50:55.669Z,99.90
2019-01-28T11:53:18.684Z,99.90
2019-01-28T11:55:48.298Z,99.90
2019-01-28T11:58:17.203Z,99.90
2019-01-28T12:00:53.209Z,99.90
2019-01-28T12:03:22.863Z,99.90
2019-01-28T12:05:51.728Z,99.90
2019-01-28T12:08:20.855Z,99.90
2019-01-28T12:10:49.606Z,99.90
2019-01-28T12:13:18.416Z,99.90
2019-01-28T12:15:49.709Z,99.90
2019-01-28T12:18:18.148Z,99.90
2019-01-28T12:20:53.456Z,99.90
2019-01-28T12:23:18.574Z,99.90
2019-01-28T12:25:48.554Z,99.90
2019-01-28T12:28:17.676Z,99.90
2019-01-28T12:30:46.689Z,99.90
2019-01-28T12:33:15.138Z,99.90
2019-01-28T12:35:43.976Z,99.90
2019-01-28T12:38:12.413Z,99.90
2019-01-28T12:40:41.200Z,99.90
2019-01-28T12:43:09.680Z,98.40
2019-01-28T12:45:38.488Z,98.70
2019-01-28T12:48:07.348Z,93.20
2019-01-28T12:50:35.972Z,93.50
2019-01-28T12:53:04.780Z,87.30
2019-01-28T12:55:34.146Z,90.60
2019-01-28T12:58:04.585Z,94.90
2019-01-28T13:00:36.210Z,97.30
2019-01-28T13:03:06.022Z,99.30
2019-01-28T13:05:34.800Z,99.90
2019-01-28T13:08:05.056Z,99.90
2019-01-28T13:10:33.920Z,99.90
2019-01-28T13:13:02.476Z,99.90
2019-01-28T13:15:37.055Z,99.90
2019-01-28T13:18:05.918Z,99.90
2019-01-28T13:20:35.043Z,99.90
2019-01-28T13:23:03.580Z,99.90
2019-01-28T13:25:36.798Z,99.90
2019-01-28T13:28:07.219Z,99.90
2019-01-28T13:30:40.111Z,99.90
2019-01-28T13:33:11.316Z,99.90
2019-01-28T13:35:40.109Z,99.90
2019-01-28T13:38:10.511Z,99.90
2019-01-28T13:40:39.084Z,99.90
2019-01-28T13:43:08.902Z,99.90
2019-01-28T13:45:38.927Z,99.90
2019-01-28T13:48:10.166Z,99.90
2019-01-28T13:50:38.860Z,99.90
2019-01-28T13:53:07.665Z,99.90
2019-01-28T13:55:36.128Z,99.90
2019-01-28T13:58:04.938Z,99.90
2019-01-28T14:00:33.816Z,99.90
2019-01-28T14:03:02.736Z,99.90
2019-01-28T14:05:31.460Z,99.90
2019-01-28T14:08:00.083Z,99.90
2019-01-28T14:10:28.725Z,99.90
2019-01-28T14:12:57.281Z,99.90
2019-01-28T14:15:36.994Z,99.90
2019-01-28T14:18:07.374Z,99.90
2019-01-28T14:20:38.286Z,99.90
2019-01-28T14:23:07.079Z,99.90
2019-01-28T14:25:36.442Z,99.90
2019-01-28T14:28:07.990Z,99.90
2019-01-28T14:30:39.445Z,99.90
2019-01-28T14:33:08.361Z,99.90
2019-01-28T14:35:37.913Z,99.90
2019-01-28T14:38:07.921Z,99.90
2019-01-28T14:40:37.735Z,99.90
2019-01-28T14:43:06.309Z,99.90
2019-01-28T14:45:34.932Z,99.90
2019-01-28T14:48:04.226Z,99.90
2019-01-28T14:50:34.657Z,99.90
2019-01-28T14:53:03.275Z,99.90
2019-01-28T14:55:32.342Z,99.90
2019-01-28T14:58:01.040Z,99.90
2019-01-28T15:00:33.829Z,99.90
2019-01-28T15:03:04.728Z,99.90
2019-01-28T15:05:33.889Z,99.90
2019-01-28T15:08:02.390Z,99.90
2019-01-28T15:10:31.823Z,99.90
2019-01-28T15:13:00.329Z,99.90
2019-01-28T15:15:36.849Z,99.90
2019-01-28T15:18:06.608Z,99.90
2019-01-28T15:20:35.442Z,99.90
2019-01-28T15:23:04.137Z,99.90
2019-01-28T15:25:35.313Z,99.90
2019-01-28T15:28:04.379Z,99.90
2019-01-28T15:30:33.336Z,99.90
2019-01-28T15:33:01.943Z,99.90
2019-01-28T15:35:31.337Z,99.90
2019-01-28T15:38:00.380Z,99.90
2019-01-28T15:40:32.209Z,99.90
2019-01-28T15:43:01.175Z,99.90
2019-01-28T15:45:35.136Z,99.90
2019-01-28T15:48:04.043Z,99.90
2019-01-28T15:50:32.843Z,99.90
2019-01-28T15:53:01.380Z,99.90
2019-01-28T15:55:33.961Z,99.90
2019-01-28T15:58:02.849Z,99.90
2019-01-28T16:00:33.442Z,99.90
2019-01-28T16:03:03.956Z,99.90
2019-01-28T16:05:32.841Z,99.90
2019-01-28T16:08:01.348Z,99.90
2019-01-28T16:10:29.873Z,99.90
2019-01-28T16:12:58.427Z,99.90
2019-01-28T16:15:32.112Z,99.90
2019-01-28T16:18:00.835Z,99.90
2019-01-28T16:20:29.421Z,99.90
2019-01-28T16:22:58.221Z,99.90
2019-01-28T16:25:26.661Z,99.90
2019-01-28T16:27:55.527Z,99.90
2019-01-28T16:30:29.399Z,99.90
2019-01-28T16:32:58.545Z,99.90
2019-01-28T16:35:27.957Z,99.90
2019-01-28T16:37:56.897Z,99.90
2019-01-28T16:40:30.338Z,99.90
2019-01-28T16:42:59.516Z,99.90
2019-01-28T16:45:28.613Z,99.90
2019-01-28T16:47:57.118Z,99.90
2019-01-28T16:50:28.527Z,99.90
2019-01-28T16:52:57.213Z,99.90
2019-01-28T16:55:26.224Z,99.90
2019-01-28T16:57:55.916Z,99.90
2019-01-28T17:00:30.186Z,99.90
2019-01-28T17:02:58.730Z,99.90
2019-01-28T17:05:27.781Z,99.90
2019-01-28T17:07:56.307Z,99.90
2019-01-28T17:10:25.092Z,99.90
2019-01-28T17:12:53.615Z,99.90
2019-01-28T17:15:24.837Z,99.90
2019-01-28T17:17:53.388Z,99.90
2019-01-28T17:20:35.550Z,99.90
2019-01-28T17:23:01.078Z,99.90
2019-01-28T17:25:38.819Z,99.90
2019-01-28T17:28:08.102Z,99.90
2019-01-28T17:30:39.179Z,99.90
2019-01-28T17:33:09.147Z,99.90
2019-01-28T17:35:38.157Z,99.90
2019-01-28T17:38:07.749Z,99.90
2019-01-28T17:40:37.194Z,99.90
2019-01-28T17:43:06.822Z,99.90
2019-01-28T17:45:35.748Z,99.90
2019-01-28T17:48:05.349Z,99.90
2019-01-28T17:50:33.941Z,99.90
2019-01-28T17:53:02.411Z,99.90
2019-01-28T17:55:51.913Z,99.90
2019-01-28T17:58:20.506Z,99.90
2019-01-28T18:00:50.838Z,99.90
2019-01-28T18:03:19.680Z,99.90
2019-01-28T18:05:48.484Z,99.90
2019-01-28T18:08:16.931Z,99.90
2019-01-28T18:10:45.480Z,99.90
2019-01-28T18:13:13.926Z,99.90
2019-01-28T18:15:44.333Z,99.90
2019-01-28T18:18:13.050Z,99.90
2019-01-28T18:20:41.498Z,99.90
2019-01-28T18:23:11.920Z,99.90
2019-01-28T18:25:40.634Z,99.90
2019-01-28T18:28:09.084Z,99.90
2019-01-28T18:30:45.618Z,99.90
2019-01-28T18:33:14.200Z,99.90
2019-01-28T18:35:42.939Z,99.90
2019-01-28T18:38:12.656Z,99.90
2019-01-28T18:40:41.210Z,99.90
2019-01-28T18:43:10.130Z,99.90
2019-01-28T18:45:39.094Z,99.90
2019-01-28T18:48:08.667Z,99.90
2019-01-28T18:50:37.350Z,99.90
2019-01-28T18:53:06.176Z,99.90
2019-01-28T18:55:34.893Z,99.90
2019-01-28T18:58:03.898Z,99.90
2019-01-28T19:00:33.729Z,99.90
2019-01-28T19:03:02.244Z,99.90
2019-01-28T19:05:41.300Z,99.90
2019-01-28T19:08:28.036Z,99.90
2019-01-28T19:10:58.216Z,99.90
2019-01-28T19:13:28.704Z,99.90
2019-01-28T19:16:01.240Z,99.90
2019-01-28T19:18:31.362Z,99.90
2019-01-28T19:21:07.733Z,99.90
2019-01-28T19:23:31.901Z,99.90
2019-01-28T19:26:00.648Z,99.90
2019-01-28T19:28:29.458Z,99.90
2019-01-28T19:30:58.265Z,99.90
2019-01-28T19:33:27.108Z,99.90
2019-01-28T19:35:55.896Z,99.90
2019-01-28T19:38:24.738Z,99.90
2019-01-28T19:40:53.603Z,99.90
2019-01-28T19:43:22.062Z,99.90
2019-01-28T19:45:50.864Z,99.90
2019-01-28T19:48:19.403Z,99.90
2019-01-28T19:50:47.887Z,99.90
2019-01-28T19:53:17.985Z,99.90
2019-01-28T19:55:46.572Z,99.90
2019-01-28T19:58:15.028Z,99.90
2019-01-28T20:00:43.763Z,99.90
2019-01-28T20:03:12.773Z,99.90
2019-01-28T20:05:41.250Z,99.90
2019-01-28T20:08:10.122Z,99.90
2019-01-28T20:10:38.911Z,99.90
2019-01-28T20:13:07.700Z,99.90
2019-01-28T20:15:36.592Z,99.90
2019-01-28T20:18:05.394Z,99.90
2019-01-28T20:20:33.993Z,99.90
2019-01-28T20:23:02.520Z,99.90
2019-01-28T20:25:31.110Z,99.90
2019-01-28T20:27:59.902Z,99.90
2019-01-28T20:30:28.797Z,99.90
2019-01-28T20:32:57.628Z,99.90
2019-01-28T20:35:26.497Z,99.90
2019-01-28T20:37:55.678Z,99.90
2019-01-28T20:40:24.129Z,99.90
2019-01-28T20:42:54.060Z,99.90
2019-01-28T20:45:26.007Z,99.90
2019-01-28T20:47:55.599Z,99.90
2019-01-28T20:50:27.086Z,99.90
2019-01-28T20:52:57.068Z,99.90
2019-01-28T20:55:25.728Z,99.90
2019-01-28T20:57:54.243Z,99.90
2019-01-28T21:00:29.656Z,99.90
2019-01-28T21:02:59.669Z,99.90
2019-01-28T21:05:28.251Z,99.90
2019-01-28T21:07:58.193Z,99.90
2019-01-28T21:10:28.547Z,99.90
2019-01-28T21:12:58.938Z,99.90
2019-01-28T21:15:27.592Z,99.90
2019-01-28T21:17:56.437Z,99.90
2019-01-28T21:20:24.951Z,99.90
2019-01-28T21:22:53.429Z,99.90
2019-01-28T21:25:24.326Z,99.90
2019-01-28T21:27:53.348Z,99.90
2019-01-28T21:30:27.449Z,99.90
2019-01-28T21:32:56.097Z,99.90
2019-01-28T21:35:38.369Z,99.90
2019-01-28T21:38:08.528Z,99.90
2019-01-28T21:40:37.341Z,99.90
2019-01-28T21:43:06.121Z,99.90
2019-01-28T21:45:34.684Z,99.90
2019-01-28T21:48:04.037Z,99.90
2019-01-28T21:50:33.745Z,99.90
2019-01-28T21:53:02.198Z,99.90
2019-01-28T21:55:30.645Z,99.90
2019-01-28T21:57:59.752Z,99.90
2019-01-28T22:00:30.096Z,99.90
2019-01-28T22:02:58.367Z,99.90
2019-01-28T22:05:27.181Z,99.90
2019-01-28T22:07:56.347Z,99.90
2019-01-28T22:10:25.462Z,99.90
2019-01-28T22:12:54.697Z,99.90
2019-01-28T22:15:23.314Z,99.90
2019-01-28T22:17:51.775Z,99.90
2019-01-28T22:20:20.253Z,99.90
2019-01-28T22:22:49.368Z,99.90
2019-01-28T22:25:18.306Z,99.90
2019-01-28T22:27:46.887Z,99.90
2019-01-28T22:30:21.193Z,99.90
2019-01-28T22:32:52.305Z,99.90
2019-01-28T22:35:22.661Z,99.90
2019-01-28T22:37:55.184Z,99.90
2019-01-28T22:40:24.020Z,99.90
2019-01-28T22:42:52.856Z,99.90
2019-01-28T22:45:22.076Z,99.90
2019-01-28T22:47:51.226Z,99.90
2019-01-28T22:50:21.673Z,99.90
2019-01-28T22:52:50.315Z,99.90
2019-01-28T22:55:22.817Z,99.90
2019-01-28T22:57:51.760Z,99.90
2019-01-28T23:00:39.781Z,99.90
2019-01-28T23:03:09.549Z,99.90
2019-01-28T23:05:38.595Z,99.90
2019-01-28T23:08:07.352Z,99.90
2019-01-28T23:10:36.456Z,99.90
2019-01-28T23:13:06.104Z,99.90
2019-01-28T23:15:37.593Z,99.90
2019-01-28T23:18:07.584Z,99.90
2019-01-28T23:20:36.598Z,99.90
2019-01-28T23:23:05.730Z,99.90
2019-01-28T23:25:34.195Z,99.90
2019-01-28T23:28:02.640Z,99.90
2019-01-28T23:30:31.444Z,99.90
2019-01-28T23:33:00.350Z,99.90
2019-01-28T23:35:28.815Z,99.90
2019-01-28T23:37:57.628Z,99.90
2019-01-28T23:40:26.317Z,99.90
2019-01-28T23:42:55.018Z,99.90
2019-01-28T23:45:23.978Z,99.90
2019-01-28T23:47:53.251Z,99.90
2019-01-28T23:50:23.282Z,99.90
2019-01-28T23:52:52.016Z,99.90
2019-01-28T23:55:20.794Z,99.90
2019-01-28T23:57:56.635Z,99.90
